sensor_id;sensor_type;location;lat;lon;timestamp;P1;durP1;ratioP1;P2;durP2;ratioP2
3949;SDS011;53057;50.988;6.314;2023-04-15T00:00:56;12.27;;;7.07;;
3949;SDS011;53057;50.988;6.314;2023-04-15T00:03:23;13.00;;;7.20;;
3949;SDS011;53057;50.988;6.314;2023-04-15T00:05:51;13.93;;;6.90;;
3949;SDS011;53057;50.988;6.314;2023-04-15T00:08:17;14.63;;;7.10;;
3949;SDS011;53057;50.988;6.314;2023-04-15T00:10:44;14.30;;;6.50;;
3949;SDS011;53057;50.988;6.314;2023-04-15T00:13:12;12.50;;;5.30;;
3949;SDS011;53057;50.988;6.314;2023-04-15T00:15:38;13.40;;;6.47;;
3949;SDS011;53057;50.988;6.314;2023-04-15T00:18:05;11.97;;;5.93;;
3949;SDS011;53057;50.988;6.314;2023-04-15T00:20:34;8.20;;;5.93;;
3949;SDS011;53057;50.988;6.314;2023-04-15T00:23:01;15.50;;;7.60;;
3949;SDS011;53057;50.988;6.314;2023-04-15T00:25:29;21.43;;;7.50;;
3949;SDS011;53057;50.988;6.314;2023-04-15T00:27:56;15.27;;;6.07;;
3949;SDS011;53057;50.988;6.314;2023-04-15T00:30:22;7.13;;;5.50;;
3949;SDS011;53057;50.988;6.314;2023-04-15T00:32:49;11.03;;;5.83;;
3949;SDS011;53057;50.988;6.314;2023-04-15T00:35:19;8.53;;;5.50;;
3949;SDS011;53057;50.988;6.314;2023-04-15T00:37:49;10.57;;;6.50;;
3949;SDS011;53057;50.988;6.314;2023-04-15T00:40:16;35.87;;;8.20;;
3949;SDS011;53057;50.988;6.314;2023-04-15T00:42:44;15.43;;;7.30;;
3949;SDS011;53057;50.988;6.314;2023-04-15T00:45:11;21.67;;;7.13;;
3949;SDS011;53057;50.988;6.314;2023-04-15T00:47:38;11.27;;;6.37;;
3949;SDS011;53057;50.988;6.314;2023-04-15T00:50:07;11.70;;;7.17;;
3949;SDS011;53057;50.988;6.314;2023-04-15T00:52:34;16.43;;;7.30;;
3949;SDS011;53057;50.988;6.314;2023-04-15T00:55:01;14.87;;;7.00;;
3949;SDS011;53057;50.988;6.314;2023-04-15T00:57:30;22.27;;;8.27;;
3949;SDS011;53057;50.988;6.314;2023-04-15T00:59:57;16.07;;;7.70;;
3949;SDS011;53057;50.988;6.314;2023-04-15T01:02:23;31.57;;;9.27;;
3949;SDS011;53057;50.988;6.314;2023-04-15T01:04:50;17.30;;;9.47;;
3949;SDS011;53057;50.988;6.314;2023-04-15T01:07:17;21.53;;;9.17;;
3949;SDS011;53057;50.988;6.314;2023-04-15T01:09:44;23.30;;;8.00;;
3949;SDS011;53057;50.988;6.314;2023-04-15T01:12:11;13.07;;;7.50;;
3949;SDS011;53057;50.988;6.314;2023-04-15T01:14:39;21.83;;;8.10;;
3949;SDS011;53057;50.988;6.314;2023-04-15T01:17:07;22.97;;;9.23;;
3949;SDS011;53057;50.988;6.314;2023-04-15T01:19:35;14.80;;;7.20;;
3949;SDS011;53057;50.988;6.314;2023-04-15T01:22:02;33.73;;;8.27;;
3949;SDS011;53057;50.988;6.314;2023-04-15T01:24:29;21.03;;;7.57;;
3949;SDS011;53057;50.988;6.314;2023-04-15T01:26:56;22.77;;;8.93;;
3949;SDS011;53057;50.988;6.314;2023-04-15T01:29:24;31.43;;;9.07;;
3949;SDS011;53057;50.988;6.314;2023-04-15T01:31:51;16.00;;;8.07;;
3949;SDS011;53057;50.988;6.314;2023-04-15T01:34:36;18.03;;;7.13;;
3949;SDS011;53057;50.988;6.314;2023-04-15T01:37:21;16.63;;;7.60;;
3949;SDS011;53057;50.988;6.314;2023-04-15T01:39:49;12.70;;;7.97;;
3949;SDS011;53057;50.988;6.314;2023-04-15T01:42:15;17.83;;;7.30;;
3949;SDS011;53057;50.988;6.314;2023-04-15T01:44:43;22.20;;;7.60;;
3949;SDS011;53057;50.988;6.314;2023-04-15T01:47:11;16.07;;;7.70;;
3949;SDS011;53057;50.988;6.314;2023-04-15T01:49:39;14.00;;;6.23;;
3949;SDS011;53057;50.988;6.314;2023-04-15T01:52:07;19.50;;;7.50;;
3949;SDS011;53057;50.988;6.314;2023-04-15T01:54:35;17.77;;;8.17;;
3949;SDS011;53057;50.988;6.314;2023-04-15T01:57:03;13.80;;;6.30;;
3949;SDS011;53057;50.988;6.314;2023-04-15T01:59:32;19.43;;;7.87;;
3949;SDS011;53057;50.988;6.314;2023-04-15T02:02:00;24.70;;;8.37;;
3949;SDS011;53057;50.988;6.314;2023-04-15T02:04:28;28.17;;;8.07;;
3949;SDS011;53057;50.988;6.314;2023-04-15T02:06:59;12.03;;;7.30;;
3949;SDS011;53057;50.988;6.314;2023-04-15T02:09:27;13.47;;;7.50;;
3949;SDS011;53057;50.988;6.314;2023-04-15T02:11:55;14.40;;;8.40;;
3949;SDS011;53057;50.988;6.314;2023-04-15T02:14:23;19.23;;;9.00;;
3949;SDS011;53057;50.988;6.314;2023-04-15T02:16:54;15.90;;;7.57;;
3949;SDS011;53057;50.988;6.314;2023-04-15T02:19:22;16.00;;;8.83;;
3949;SDS011;53057;50.988;6.314;2023-04-15T02:21:50;14.27;;;8.47;;
3949;SDS011;53057;50.988;6.314;2023-04-15T02:24:18;23.00;;;8.00;;
3949;SDS011;53057;50.988;6.314;2023-04-15T02:26:46;14.70;;;7.57;;
3949;SDS011;53057;50.988;6.314;2023-04-15T02:29:15;19.47;;;7.90;;
3949;SDS011;53057;50.988;6.314;2023-04-15T02:31:43;16.00;;;8.33;;
3949;SDS011;53057;50.988;6.314;2023-04-15T02:34:11;12.87;;;7.37;;
3949;SDS011;53057;50.988;6.314;2023-04-15T02:36:44;23.40;;;9.87;;
3949;SDS011;53057;50.988;6.314;2023-04-15T02:39:14;16.63;;;8.93;;
3949;SDS011;53057;50.988;6.314;2023-04-15T02:41:43;15.53;;;8.43;;
3949;SDS011;53057;50.988;6.314;2023-04-15T02:44:14;16.87;;;10.13;;
3949;SDS011;53057;50.988;6.314;2023-04-15T02:46:44;15.17;;;8.80;;
3949;SDS011;53057;50.988;6.314;2023-04-15T02:49:13;19.57;;;8.80;;
3949;SDS011;53057;50.988;6.314;2023-04-15T02:51:41;15.50;;;8.30;;
3949;SDS011;53057;50.988;6.314;2023-04-15T02:54:09;12.57;;;8.27;;
3949;SDS011;53057;50.988;6.314;2023-04-15T02:56:37;13.53;;;7.50;;
3949;SDS011;53057;50.988;6.314;2023-04-15T02:59:05;11.63;;;7.90;;
3949;SDS011;53057;50.988;6.314;2023-04-15T03:01:33;13.17;;;7.67;;
3949;SDS011;53057;50.988;6.314;2023-04-15T03:04:02;12.70;;;7.83;;
3949;SDS011;53057;50.988;6.314;2023-04-15T03:06:30;14.13;;;6.60;;
3949;SDS011;53057;50.988;6.314;2023-04-15T03:08:57;25.80;;;6.70;;
3949;SDS011;53057;50.988;6.314;2023-04-15T03:11:28;18.77;;;7.57;;
3949;SDS011;53057;50.988;6.314;2023-04-15T03:13:56;14.73;;;7.07;;
3949;SDS011;53057;50.988;6.314;2023-04-15T03:16:32;17.50;;;6.70;;
3949;SDS011;53057;50.988;6.314;2023-04-15T03:19:00;17.50;;;7.53;;
3949;SDS011;53057;50.988;6.314;2023-04-15T03:21:29;20.07;;;7.73;;
3949;SDS011;53057;50.988;6.314;2023-04-15T03:23:57;15.53;;;7.30;;
3949;SDS011;53057;50.988;6.314;2023-04-15T03:26:28;12.23;;;7.10;;
3949;SDS011;53057;50.988;6.314;2023-04-15T03:29:00;16.80;;;6.97;;
3949;SDS011;53057;50.988;6.314;2023-04-15T03:31:28;13.53;;;7.30;;
3949;SDS011;53057;50.988;6.314;2023-04-15T03:33:57;13.03;;;6.70;;
3949;SDS011;53057;50.988;6.314;2023-04-15T03:36:25;13.03;;;8.47;;
3949;SDS011;53057;50.988;6.314;2023-04-15T03:38:53;13.10;;;7.40;;
3949;SDS011;53057;50.988;6.314;2023-04-15T03:41:22;13.47;;;8.83;;
3949;SDS011;53057;50.988;6.314;2023-04-15T03:43:50;13.63;;;6.00;;
3949;SDS011;53057;50.988;6.314;2023-04-15T03:46:18;13.47;;;7.80;;
3949;SDS011;53057;50.988;6.314;2023-04-15T03:48:46;18.90;;;7.37;;
3949;SDS011;53057;50.988;6.314;2023-04-15T03:51:14;19.83;;;7.53;;
3949;SDS011;53057;50.988;6.314;2023-04-15T03:53:42;11.83;;;7.47;;
3949;SDS011;53057;50.988;6.314;2023-04-15T03:56:10;11.60;;;6.90;;
3949;SDS011;53057;50.988;6.314;2023-04-15T03:58:38;14.13;;;8.17;;
3949;SDS011;53057;50.988;6.314;2023-04-15T04:01:06;15.03;;;6.47;;
3949;SDS011;53057;50.988;6.314;2023-04-15T04:03:33;9.60;;;6.77;;
3949;SDS011;53057;50.988;6.314;2023-04-15T04:06:01;13.20;;;7.10;;
3949;SDS011;53057;50.988;6.314;2023-04-15T04:08:29;8.27;;;6.27;;
3949;SDS011;53057;50.988;6.314;2023-04-15T04:10:57;14.40;;;7.43;;
3949;SDS011;53057;50.988;6.314;2023-04-15T04:13:25;14.37;;;7.50;;
3949;SDS011;53057;50.988;6.314;2023-04-15T04:15:52;11.53;;;6.23;;
3949;SDS011;53057;50.988;6.314;2023-04-15T04:18:20;16.33;;;7.23;;
3949;SDS011;53057;50.988;6.314;2023-04-15T04:20:48;19.67;;;9.90;;
3949;SDS011;53057;50.988;6.314;2023-04-15T04:23:16;11.43;;;7.87;;
3949;SDS011;53057;50.988;6.314;2023-04-15T04:25:44;11.13;;;7.47;;
3949;SDS011;53057;50.988;6.314;2023-04-15T04:28:11;15.90;;;7.87;;
3949;SDS011;53057;50.988;6.314;2023-04-15T04:30:39;12.37;;;7.77;;
3949;SDS011;53057;50.988;6.314;2023-04-15T04:33:07;12.80;;;7.83;;
3949;SDS011;53057;50.988;6.314;2023-04-15T04:35:35;10.43;;;7.60;;
3949;SDS011;53057;50.988;6.314;2023-04-15T04:38:04;15.00;;;9.67;;
3949;SDS011;53057;50.988;6.314;2023-04-15T04:40:32;16.07;;;8.13;;
3949;SDS011;53057;50.988;6.314;2023-04-15T04:43:00;25.00;;;9.40;;
3949;SDS011;53057;50.988;6.314;2023-04-15T04:45:28;20.90;;;9.13;;
3949;SDS011;53057;50.988;6.314;2023-04-15T04:47:55;19.33;;;9.87;;
3949;SDS011;53057;50.988;6.314;2023-04-15T04:50:23;21.63;;;9.80;;
3949;SDS011;53057;50.988;6.314;2023-04-15T04:52:51;30.37;;;11.10;;
3949;SDS011;53057;50.988;6.314;2023-04-15T04:55:19;34.40;;;11.37;;
3949;SDS011;53057;50.988;6.314;2023-04-15T04:57:47;18.80;;;10.00;;
3949;SDS011;53057;50.988;6.314;2023-04-15T05:00:15;30.83;;;10.30;;
3949;SDS011;53057;50.988;6.314;2023-04-15T05:02:43;24.20;;;13.20;;
3949;SDS011;53057;50.988;6.314;2023-04-15T05:05:11;35.17;;;11.60;;
3949;SDS011;53057;50.988;6.314;2023-04-15T05:07:40;22.40;;;13.00;;
3949;SDS011;53057;50.988;6.314;2023-04-15T05:10:08;32.07;;;13.70;;
3949;SDS011;53057;50.988;6.314;2023-04-15T05:12:35;16.97;;;12.87;;
3949;SDS011;53057;50.988;6.314;2023-04-15T05:15:05;18.93;;;12.80;;
3949;SDS011;53057;50.988;6.314;2023-04-15T05:17:33;17.40;;;11.90;;
3949;SDS011;53057;50.988;6.314;2023-04-15T05:20:02;28.30;;;13.43;;
3949;SDS011;53057;50.988;6.314;2023-04-15T05:22:30;28.00;;;14.27;;
3949;SDS011;53057;50.988;6.314;2023-04-15T05:24:58;22.63;;;13.23;;
3949;SDS011;53057;50.988;6.314;2023-04-15T05:27:26;25.60;;;15.03;;
3949;SDS011;53057;50.988;6.314;2023-04-15T05:29:53;28.60;;;12.73;;
3949;SDS011;53057;50.988;6.314;2023-04-15T05:32:21;20.83;;;13.03;;
3949;SDS011;53057;50.988;6.314;2023-04-15T05:34:49;21.03;;;12.53;;
3949;SDS011;53057;50.988;6.314;2023-04-15T05:37:17;22.17;;;12.50;;
3949;SDS011;53057;50.988;6.314;2023-04-15T05:39:47;29.23;;;12.13;;
3949;SDS011;53057;50.988;6.314;2023-04-15T05:42:15;22.00;;;12.33;;
3949;SDS011;53057;50.988;6.314;2023-04-15T05:44:43;28.23;;;12.10;;
3949;SDS011;53057;50.988;6.314;2023-04-15T05:47:11;25.80;;;12.80;;
3949;SDS011;53057;50.988;6.314;2023-04-15T05:49:39;22.37;;;10.47;;
3949;SDS011;53057;50.988;6.314;2023-04-15T05:52:06;24.97;;;11.10;;
3949;SDS011;53057;50.988;6.314;2023-04-15T05:54:34;28.83;;;10.30;;
3949;SDS011;53057;50.988;6.314;2023-04-15T05:57:03;26.73;;;10.93;;
3949;SDS011;53057;50.988;6.314;2023-04-15T05:59:31;20.10;;;10.00;;
3949;SDS011;53057;50.988;6.314;2023-04-15T06:01:59;20.03;;;10.97;;
3949;SDS011;53057;50.988;6.314;2023-04-15T06:04:27;17.83;;;10.43;;
3949;SDS011;53057;50.988;6.314;2023-04-15T06:06:55;20.30;;;11.00;;
3949;SDS011;53057;50.988;6.314;2023-04-15T06:09:23;15.03;;;9.00;;
3949;SDS011;53057;50.988;6.314;2023-04-15T06:11:51;18.80;;;10.53;;
3949;SDS011;53057;50.988;6.314;2023-04-15T06:14:19;23.60;;;10.13;;
3949;SDS011;53057;50.988;6.314;2023-04-15T06:16:47;16.43;;;9.67;;
3949;SDS011;53057;50.988;6.314;2023-04-15T06:19:15;12.93;;;9.60;;
3949;SDS011;53057;50.988;6.314;2023-04-15T06:21:43;19.07;;;10.37;;
3949;SDS011;53057;50.988;6.314;2023-04-15T06:24:11;23.00;;;10.43;;
3949;SDS011;53057;50.988;6.314;2023-04-15T06:26:39;19.57;;;11.17;;
3949;SDS011;53057;50.988;6.314;2023-04-15T06:29:07;24.80;;;11.93;;
3949;SDS011;53057;50.988;6.314;2023-04-15T06:31:35;19.53;;;12.43;;
3949;SDS011;53057;50.988;6.314;2023-04-15T06:34:02;31.67;;;13.00;;
3949;SDS011;53057;50.988;6.314;2023-04-15T06:36:30;23.93;;;12.80;;
3949;SDS011;53057;50.988;6.314;2023-04-15T06:38:59;21.03;;;11.50;;
3949;SDS011;53057;50.988;6.314;2023-04-15T06:41:28;22.77;;;13.30;;
3949;SDS011;53057;50.988;6.314;2023-04-15T06:43:56;27.63;;;13.87;;
3949;SDS011;53057;50.988;6.314;2023-04-15T06:46:24;21.53;;;13.93;;
3949;SDS011;53057;50.988;6.314;2023-04-15T06:48:52;21.50;;;11.93;;
3949;SDS011;53057;50.988;6.314;2023-04-15T06:51:20;24.10;;;12.67;;
3949;SDS011;53057;50.988;6.314;2023-04-15T06:53:48;24.30;;;12.67;;
3949;SDS011;53057;50.988;6.314;2023-04-15T06:56:16;33.00;;;13.10;;
3949;SDS011;53057;50.988;6.314;2023-04-15T06:58:44;26.60;;;13.70;;
3949;SDS011;53057;50.988;6.314;2023-04-15T07:01:12;25.30;;;14.17;;
3949;SDS011;53057;50.988;6.314;2023-04-15T07:03:40;33.83;;;13.50;;
3949;SDS011;53057;50.988;6.314;2023-04-15T07:06:08;25.27;;;13.07;;
3949;SDS011;53057;50.988;6.314;2023-04-15T07:08:36;22.43;;;12.73;;
3949;SDS011;53057;50.988;6.314;2023-04-15T07:11:04;23.60;;;13.67;;
3949;SDS011;53057;50.988;6.314;2023-04-15T07:13:32;29.87;;;13.17;;
3949;SDS011;53057;50.988;6.314;2023-04-15T07:16:00;19.37;;;13.97;;
3949;SDS011;53057;50.988;6.314;2023-04-15T07:18:27;26.20;;;16.43;;
3949;SDS011;53057;50.988;6.314;2023-04-15T07:20:55;25.23;;;14.33;;
3949;SDS011;53057;50.988;6.314;2023-04-15T07:23:23;23.70;;;16.60;;
3949;SDS011;53057;50.988;6.314;2023-04-15T07:25:51;22.50;;;17.80;;
3949;SDS011;53057;50.988;6.314;2023-04-15T07:28:19;25.43;;;19.17;;
3949;SDS011;53057;50.988;6.314;2023-04-15T07:30:47;27.23;;;18.40;;
3949;SDS011;53057;50.988;6.314;2023-04-15T07:33:15;30.23;;;19.60;;
3949;SDS011;53057;50.988;6.314;2023-04-15T07:35:43;23.83;;;16.43;;
3949;SDS011;53057;50.988;6.314;2023-04-15T07:38:13;25.50;;;17.57;;
3949;SDS011;53057;50.988;6.314;2023-04-15T07:40:41;25.30;;;17.80;;
3949;SDS011;53057;50.988;6.314;2023-04-15T07:43:10;24.17;;;17.27;;
3949;SDS011;53057;50.988;6.314;2023-04-15T07:45:40;34.97;;;17.03;;
3949;SDS011;53057;50.988;6.314;2023-04-15T07:48:08;27.57;;;17.70;;
3949;SDS011;53057;50.988;6.314;2023-04-15T07:50:35;27.00;;;18.50;;
3949;SDS011;53057;50.988;6.314;2023-04-15T07:53:03;32.80;;;17.60;;
3949;SDS011;53057;50.988;6.314;2023-04-15T07:55:33;30.30;;;18.90;;
3949;SDS011;53057;50.988;6.314;2023-04-15T07:58:00;23.47;;;15.50;;
3949;SDS011;53057;50.988;6.314;2023-04-15T08:00:28;21.13;;;16.57;;
3949;SDS011;53057;50.988;6.314;2023-04-15T08:02:57;22.93;;;15.93;;
3949;SDS011;53057;50.988;6.314;2023-04-15T08:05:26;24.13;;;14.90;;
3949;SDS011;53057;50.988;6.314;2023-04-15T08:07:54;21.20;;;14.50;;
3949;SDS011;53057;50.988;6.314;2023-04-15T08:10:21;20.30;;;15.47;;
3949;SDS011;53057;50.988;6.314;2023-04-15T08:12:49;17.47;;;14.13;;
3949;SDS011;53057;50.988;6.314;2023-04-15T08:15:20;20.97;;;14.37;;
3949;SDS011;53057;50.988;6.314;2023-04-15T08:17:48;18.97;;;13.80;;
3949;SDS011;53057;50.988;6.314;2023-04-15T08:20:16;16.50;;;11.33;;
3949;SDS011;53057;50.988;6.314;2023-04-15T08:22:44;14.77;;;11.97;;
3949;SDS011;53057;50.988;6.314;2023-04-15T08:25:14;17.07;;;11.00;;
3949;SDS011;53057;50.988;6.314;2023-04-15T08:27:42;18.47;;;11.20;;
3949;SDS011;53057;50.988;6.314;2023-04-15T08:30:10;11.43;;;9.87;;
3949;SDS011;53057;50.988;6.314;2023-04-15T08:32:38;11.17;;;9.80;;
3949;SDS011;53057;50.988;6.314;2023-04-15T08:35:06;12.53;;;10.70;;
3949;SDS011;53057;50.988;6.314;2023-04-15T08:37:34;12.40;;;9.97;;
3949;SDS011;53057;50.988;6.314;2023-04-15T08:40:02;12.47;;;8.67;;
3949;SDS011;53057;50.988;6.314;2023-04-15T08:42:31;10.47;;;8.53;;
3949;SDS011;53057;50.988;6.314;2023-04-15T08:45:04;14.43;;;8.50;;
3949;SDS011;53057;50.988;6.314;2023-04-15T08:47:32;10.33;;;8.57;;
3949;SDS011;53057;50.988;6.314;2023-04-15T08:50:01;11.63;;;8.63;;
3949;SDS011;53057;50.988;6.314;2023-04-15T08:52:30;11.73;;;8.97;;
3949;SDS011;53057;50.988;6.314;2023-04-15T08:54:58;18.80;;;9.87;;
3949;SDS011;53057;50.988;6.314;2023-04-15T08:57:27;19.83;;;9.07;;
3949;SDS011;53057;50.988;6.314;2023-04-15T08:59:55;12.43;;;10.17;;
3949;SDS011;53057;50.988;6.314;2023-04-15T09:02:24;12.00;;;9.40;;
3949;SDS011;53057;50.988;6.314;2023-04-15T09:04:55;12.93;;;11.53;;
3949;SDS011;53057;50.988;6.314;2023-04-15T09:07:23;13.47;;;11.50;;
3949;SDS011;53057;50.988;6.314;2023-04-15T09:09:51;17.50;;;9.83;;
3949;SDS011;53057;50.988;6.314;2023-04-15T09:12:19;14.97;;;11.10;;
3949;SDS011;53057;50.988;6.314;2023-04-15T09:14:47;13.27;;;10.60;;
3949;SDS011;53057;50.988;6.314;2023-04-15T09:17:19;18.97;;;10.30;;
3949;SDS011;53057;50.988;6.314;2023-04-15T09:19:48;15.70;;;11.50;;
3949;SDS011;53057;50.988;6.314;2023-04-15T09:22:16;19.17;;;10.57;;
3949;SDS011;53057;50.988;6.314;2023-04-15T09:24:47;19.07;;;12.00;;
3949;SDS011;53057;50.988;6.314;2023-04-15T09:27:15;11.73;;;10.50;;
3949;SDS011;53057;50.988;6.314;2023-04-15T09:29:43;11.80;;;8.43;;
3949;SDS011;53057;50.988;6.314;2023-04-15T09:32:12;14.37;;;9.20;;
3949;SDS011;53057;50.988;6.314;2023-04-15T09:34:40;14.93;;;8.50;;
3949;SDS011;53057;50.988;6.314;2023-04-15T09:37:08;16.57;;;9.00;;
3949;SDS011;53057;50.988;6.314;2023-04-15T09:39:44;10.87;;;8.70;;
3949;SDS011;53057;50.988;6.314;2023-04-15T09:42:12;14.53;;;10.70;;
3949;SDS011;53057;50.988;6.314;2023-04-15T09:44:41;13.47;;;11.23;;
3949;SDS011;53057;50.988;6.314;2023-04-15T09:47:09;12.10;;;10.80;;
3949;SDS011;53057;50.988;6.314;2023-04-15T09:49:57;16.03;;;12.60;;
3949;SDS011;53057;50.988;6.314;2023-04-15T09:52:26;14.03;;;11.40;;
3949;SDS011;53057;50.988;6.314;2023-04-15T09:54:54;17.27;;;13.27;;
3949;SDS011;53057;50.988;6.314;2023-04-15T09:57:24;14.43;;;11.10;;
3949;SDS011;53057;50.988;6.314;2023-04-15T10:00:02;12.00;;;8.90;;
3949;SDS011;53057;50.988;6.314;2023-04-15T10:02:33;16.13;;;9.40;;
3949;SDS011;53057;50.988;6.314;2023-04-15T10:05:02;12.77;;;9.10;;
3949;SDS011;53057;50.988;6.314;2023-04-15T10:07:29;12.03;;;9.57;;
3949;SDS011;53057;50.988;6.314;2023-04-15T10:09:57;17.50;;;9.43;;
3949;SDS011;53057;50.988;6.314;2023-04-15T10:12:26;6.77;;;5.43;;
3949;SDS011;53057;50.988;6.314;2023-04-15T10:14:57;16.03;;;8.20;;
3949;SDS011;53057;50.988;6.314;2023-04-15T10:17:26;9.30;;;5.77;;
3949;SDS011;53057;50.988;6.314;2023-04-15T10:20:00;5.93;;;4.43;;
3949;SDS011;53057;50.988;6.314;2023-04-15T10:22:30;5.70;;;5.20;;
3949;SDS011;53057;50.988;6.314;2023-04-15T10:24:58;7.00;;;4.60;;
3949;SDS011;53057;50.988;6.314;2023-04-15T10:27:27;4.83;;;4.33;;
3949;SDS011;53057;50.988;6.314;2023-04-15T10:29:55;6.97;;;5.20;;
3949;SDS011;53057;50.988;6.314;2023-04-15T10:32:24;7.07;;;4.70;;
3949;SDS011;53057;50.988;6.314;2023-04-15T10:34:53;5.00;;;4.50;;
3949;SDS011;53057;50.988;6.314;2023-04-15T10:37:22;12.13;;;5.53;;
3949;SDS011;53057;50.988;6.314;2023-04-15T10:39:59;10.00;;;7.70;;
3949;SDS011;53057;50.988;6.314;2023-04-15T10:42:33;6.43;;;5.83;;
3949;SDS011;53057;50.988;6.314;2023-04-15T10:45:01;17.93;;;7.07;;
3949;SDS011;53057;50.988;6.314;2023-04-15T10:47:29;5.73;;;5.07;;
3949;SDS011;53057;50.988;6.314;2023-04-15T10:50:00;6.63;;;5.40;;
3949;SDS011;53057;50.988;6.314;2023-04-15T10:52:29;7.60;;;5.20;;
3949;SDS011;53057;50.988;6.314;2023-04-15T10:55:11;6.93;;;4.63;;
3949;SDS011;53057;50.988;6.314;2023-04-15T10:57:39;7.67;;;4.23;;
3949;SDS011;53057;50.988;6.314;2023-04-15T11:05:14;4.43;;;4.00;;
3949;SDS011;53057;50.988;6.314;2023-04-15T11:12:45;5.27;;;4.77;;
3949;SDS011;53057;50.988;6.314;2023-04-15T11:18:13;6.97;;;6.27;;
3949;SDS011;53057;50.988;6.314;2023-04-15T11:20:48;7.00;;;5.27;;
3949;SDS011;53057;50.988;6.314;2023-04-15T11:23:27;6.03;;;4.97;;
3949;SDS011;53057;50.988;6.314;2023-04-15T11:25:55;6.27;;;4.10;;
3949;SDS011;53057;50.988;6.314;2023-04-15T11:28:25;3.40;;;3.20;;
3949;SDS011;53057;50.988;6.314;2023-04-15T11:30:54;3.40;;;3.10;;
3949;SDS011;53057;50.988;6.314;2023-04-15T11:33:23;4.07;;;3.67;;
3949;SDS011;53057;50.988;6.314;2023-04-15T11:35:51;5.33;;;4.73;;
3949;SDS011;53057;50.988;6.314;2023-04-15T11:38:20;5.40;;;4.90;;
3949;SDS011;53057;50.988;6.314;2023-04-15T11:40:49;9.83;;;5.77;;
3949;SDS011;53057;50.988;6.314;2023-04-15T11:48:15;4.83;;;4.43;;
3949;SDS011;53057;50.988;6.314;2023-04-15T11:50:43;5.20;;;4.23;;
3949;SDS011;53057;50.988;6.314;2023-04-15T11:53:10;8.20;;;4.70;;
3949;SDS011;53057;50.988;6.314;2023-04-15T11:55:41;7.13;;;6.13;;
3949;SDS011;53057;50.988;6.314;2023-04-15T11:58:21;7.10;;;5.83;;
3949;SDS011;53057;50.988;6.314;2023-04-15T12:00:52;7.27;;;6.57;;
3949;SDS011;53057;50.988;6.314;2023-04-15T12:03:36;4.10;;;3.70;;
3949;SDS011;53057;50.988;6.314;2023-04-15T12:11:16;3.63;;;2.80;;
3949;SDS011;53057;50.988;6.314;2023-04-15T12:13:43;3.17;;;2.80;;
3949;SDS011;53057;50.988;6.314;2023-04-15T12:16:10;9.97;;;4.20;;
3949;SDS011;53057;50.988;6.314;2023-04-15T12:18:39;5.70;;;4.30;;
3949;SDS011;53057;50.988;6.314;2023-04-15T12:21:09;10.70;;;4.70;;
3949;SDS011;53057;50.988;6.314;2023-04-15T12:23:37;6.50;;;5.23;;
3949;SDS011;53057;50.988;6.314;2023-04-15T12:26:04;6.77;;;5.70;;
3949;SDS011;53057;50.988;6.314;2023-04-15T12:28:33;5.10;;;4.67;;
3949;SDS011;53057;50.988;6.314;2023-04-15T12:31:05;6.20;;;5.00;;
3949;SDS011;53057;50.988;6.314;2023-04-15T12:33:32;4.47;;;3.77;;
3949;SDS011;53057;50.988;6.314;2023-04-15T12:35:59;9.20;;;5.13;;
3949;SDS011;53057;50.988;6.314;2023-04-15T12:38:26;4.90;;;3.53;;
3949;SDS011;53057;50.988;6.314;2023-04-15T12:40:52;3.57;;;3.27;;
3949;SDS011;53057;50.988;6.314;2023-04-15T12:43:19;8.90;;;4.43;;
3949;SDS011;53057;50.988;6.314;2023-04-15T12:45:46;4.37;;;4.07;;
3949;SDS011;53057;50.988;6.314;2023-04-15T12:48:13;12.67;;;5.03;;
3949;SDS011;53057;50.988;6.314;2023-04-15T12:50:39;5.17;;;4.30;;
3949;SDS011;53057;50.988;6.314;2023-04-15T12:53:06;3.40;;;3.10;;
3949;SDS011;53057;50.988;6.314;2023-04-15T12:55:33;4.13;;;3.60;;
3949;SDS011;53057;50.988;6.314;2023-04-15T12:57:59;9.33;;;4.90;;
3949;SDS011;53057;50.988;6.314;2023-04-15T13:00:26;4.50;;;3.80;;
3949;SDS011;53057;50.988;6.314;2023-04-15T13:02:53;3.37;;;3.07;;
3949;SDS011;53057;50.988;6.314;2023-04-15T13:05:20;4.70;;;4.30;;
3949;SDS011;53057;50.988;6.314;2023-04-15T13:07:47;3.93;;;2.87;;
3949;SDS011;53057;50.988;6.314;2023-04-15T13:10:14;5.90;;;4.30;;
3949;SDS011;53057;50.988;6.314;2023-04-15T13:12:41;5.03;;;3.50;;
3949;SDS011;53057;50.988;6.314;2023-04-15T13:15:07;4.03;;;3.67;;
3949;SDS011;53057;50.988;6.314;2023-04-15T13:17:36;4.53;;;4.03;;
3949;SDS011;53057;50.988;6.314;2023-04-15T13:20:03;4.00;;;3.70;;
3949;SDS011;53057;50.988;6.314;2023-04-15T13:22:31;6.40;;;3.70;;
3949;SDS011;53057;50.988;6.314;2023-04-15T13:24:57;8.23;;;4.40;;
3949;SDS011;53057;50.988;6.314;2023-04-15T13:27:24;5.30;;;3.93;;
3949;SDS011;53057;50.988;6.314;2023-04-15T13:29:51;4.43;;;4.10;;
3949;SDS011;53057;50.988;6.314;2023-04-15T13:32:18;4.97;;;4.57;;
3949;SDS011;53057;50.988;6.314;2023-04-15T13:34:44;10.50;;;4.83;;
3949;SDS011;53057;50.988;6.314;2023-04-15T13:37:11;5.00;;;4.60;;
3949;SDS011;53057;50.988;6.314;2023-04-15T13:39:38;5.30;;;4.80;;
3949;SDS011;53057;50.988;6.314;2023-04-15T13:42:05;5.40;;;4.90;;
3949;SDS011;53057;50.988;6.314;2023-04-15T13:44:31;9.53;;;5.30;;
3949;SDS011;53057;50.988;6.314;2023-04-15T13:46:58;7.77;;;5.13;;
3949;SDS011;53057;50.988;6.314;2023-04-15T13:49:25;6.33;;;5.10;;
3949;SDS011;53057;50.988;6.314;2023-04-15T13:51:51;6.73;;;4.93;;
3949;SDS011;53057;50.988;6.314;2023-04-15T13:54:18;10.17;;;5.90;;
3949;SDS011;53057;50.988;6.314;2023-04-15T13:56:44;4.87;;;4.30;;
3949;SDS011;53057;50.988;6.314;2023-04-15T13:59:11;6.40;;;4.20;;
3949;SDS011;53057;50.988;6.314;2023-04-15T14:01:38;4.13;;;3.83;;
3949;SDS011;53057;50.988;6.314;2023-04-15T14:04:07;4.57;;;3.90;;
3949;SDS011;53057;50.988;6.314;2023-04-15T14:06:35;3.60;;;3.30;;
3949;SDS011;53057;50.988;6.314;2023-04-15T14:09:01;4.37;;;3.33;;
3949;SDS011;53057;50.988;6.314;2023-04-15T14:11:29;4.20;;;3.20;;
3949;SDS011;53057;50.988;6.314;2023-04-15T14:13:56;4.87;;;2.80;;
3949;SDS011;53057;50.988;6.314;2023-04-15T14:16:22;4.93;;;3.63;;
3949;SDS011;53057;50.988;6.314;2023-04-15T14:18:49;3.70;;;3.30;;
3949;SDS011;53057;50.988;6.314;2023-04-15T14:21:16;4.47;;;4.07;;
3949;SDS011;53057;50.988;6.314;2023-04-15T14:23:42;5.50;;;4.30;;
3949;SDS011;53057;50.988;6.314;2023-04-15T14:26:09;4.37;;;3.57;;
3949;SDS011;53057;50.988;6.314;2023-04-15T14:28:36;8.90;;;5.80;;
3949;SDS011;53057;50.988;6.314;2023-04-15T14:31:04;8.33;;;4.43;;
3949;SDS011;53057;50.988;6.314;2023-04-15T14:33:31;5.20;;;4.70;;
3949;SDS011;53057;50.988;6.314;2023-04-15T14:35:58;6.83;;;5.27;;
3949;SDS011;53057;50.988;6.314;2023-04-15T14:38:25;5.47;;;4.07;;
3949;SDS011;53057;50.988;6.314;2023-04-15T14:40:51;4.53;;;4.17;;
3949;SDS011;53057;50.988;6.314;2023-04-15T14:43:19;5.80;;;4.57;;
3949;SDS011;53057;50.988;6.314;2023-04-15T14:45:46;7.60;;;3.73;;
3949;SDS011;53057;50.988;6.314;2023-04-15T14:48:13;4.60;;;3.80;;
3949;SDS011;53057;50.988;6.314;2023-04-15T14:50:40;21.83;;;5.17;;
3949;SDS011;53057;50.988;6.314;2023-04-15T14:53:06;4.50;;;4.10;;
3949;SDS011;53057;50.988;6.314;2023-04-15T14:55:33;7.50;;;4.10;;
3949;SDS011;53057;50.988;6.314;2023-04-15T14:58:00;4.50;;;4.10;;
3949;SDS011;53057;50.988;6.314;2023-04-15T15:00:27;5.17;;;4.67;;
3949;SDS011;53057;50.988;6.314;2023-04-15T15:02:54;5.40;;;4.10;;
3949;SDS011;53057;50.988;6.314;2023-04-15T15:05:20;6.00;;;3.60;;
3949;SDS011;53057;50.988;6.314;2023-04-15T15:07:47;11.17;;;4.37;;
3949;SDS011;53057;50.988;6.314;2023-04-15T15:10:14;3.73;;;3.27;;
3949;SDS011;53057;50.988;6.314;2023-04-15T15:12:41;2.47;;;2.27;;
3949;SDS011;53057;50.988;6.314;2023-04-15T15:15:07;3.40;;;1.73;;
3949;SDS011;53057;50.988;6.314;2023-04-15T15:17:54;2.17;;;1.97;;